Carolina, PR (00988)

9:32 AM AST on December 09, 2016 (GMT -0400)
Ciudad Jardin | | Change Station

Elev 10 ft 18.37 °N, 65.93 °W | Updated 4 seconds ago

Partly Cloudy
Partly Cloudy
80.5 °F
Feels Like 87 °F
N
0.0
Wind Variable Wind from East
Gusts 1.0 mph

Today
High -- | Low -- °F
--% Chance of Precip.
Yesterday
High -- | Low -- °F
Precip. -- in
Pressure 30.06 in
Visibility 10.0 miles
Clouds Few 2500 ft
Few 5500 ft
Heat Index 87 °F
Dew Point 76 °F
Humidity 87%
Rainfall 0.05 in
Snow Depth Not available.
6:44 AM 5:48 PM
Waxing Gibbous, 74% visible
METAR TJSJ 091256Z 00000KT 10SM FEW025 FEW055 27/23 A3006 RMK AO2 SLP178 T02670233 $
Pressure 30.06 in
Visibility 10.0 miles
Clouds Few 2500 ft
Few 5500 ft
Heat Index 87 °F
Dew Point 76 °F
Humidity 87%
Rainfall 0.05 in
Snow Depth Not available.
6:44 AM 5:48 PM
Waxing Gibbous, 74% visible
METAR TJSJ 091256Z 00000KT 10SM FEW025 FEW055 27/23 A3006 RMK AO2 SLP178 T02670233 $

10-Day Weather Forecast

Almanac

Astronomy

Dec. 09, 2016 Rise Set
Actual Time
Civil Twilight
Nautical Twilight
Astronomical Twilight
Moon
Length of Visible Light
Length of Day
Tomorrow will be .
, % of the Moon is Illuminated

Today's Extremes

State Highs State Lows

Community

WunderPhotos

Upload Photos

1,956,407 photos uploaded!

WunderBlog® & News

Nearby

Air Quality

  Air Quality AQ Index Pollutant
Not available.

Snow Depth

Station Depth Elevation

Earthquake Activity

City Distance Mag. Time & Date
Minimum magnitude displayed is 2.5.

Coastal Water Temperatures

Place Temperature

Stations

Nearby Weather Stations

Station Location Temp. Windchill Dew Point Humidity Wind Precip. Elev Updated Type
                   

Watches & Warnings

There are currently no watches in effect.